Time;durP1;ratioP1;P1;durP2;ratioP2;P2;SDS_P1;SDS_P2;PMS_P1;PMS_P2;Temp;Humidity;BMP_temperature;BMP_pressure;BME280_temperature;BME280_humidity;BME280_pressure;Samples;Min_cycle;Max_cycle;Signal;HPM_P1;HPM_P2
2024/01/28 00:00:14;;;;;;;31.95;24.45;;;;;;;;;;5013837;28;20024;-74
2024/01/28 00:02:40;;;;;;;34.53;26.38;;;;;;;;;;5005563;28;20041;-74
2024/01/28 00:05:05;;;;;;;42.45;33.33;;;;;;;;;;4997555;28;20030;-73
2024/01/28 00:07:30;;;;;;;38.92;29.42;;;;;;;;;;4996717;28;20679;-74
2024/01/28 00:09:55;;;;;;;41.13;30.83;;;;;;;;;;4992943;28;20037;-73
2024/01/28 00:12:21;;;;;;;39.65;31.00;;;;;;;;;;4996560;28;20021;-74
2024/01/28 00:14:46;;;;;;;40.25;31.85;;;;;;;;;;5011986;28;20349;-73
2024/01/28 00:17:11;;;;;;;54.33;40.83;;;;;;;;;;5012444;28;20041;-73
2024/01/28 00:19:37;;;;;;;63.25;46.53;;;;;;;;;;5004822;28;20021;-76
2024/01/28 00:22:03;;;;;;;88.03;61.15;;;;;;;;;;5009073;28;20092;-75
2024/01/28 00:24:28;;;;;;;90.10;63.38;;;;;;;;;;5015677;28;20035;-77
2024/01/28 00:26:54;;;;;;;115.28;79.90;;;;;;;;;;5005898;28;20042;-74
2024/01/28 00:29:26;;;;;;;80.47;55.92;;;;;;;;;;4996898;28;20030;-77
2024/01/28 00:31:51;;;;;;;35.72;24.73;;;;;;;;;;5009506;28;20033;-71
2024/01/28 00:34:17;;;;;;;20.02;14.15;;;;;;;;;;5030738;28;20107;-70
2024/01/28 00:36:42;;;;;;;28.08;19.08;;;;;;;;;;5037524;28;20030;-71
2024/01/28 00:39:10;;;;;;;22.73;15.32;;;;;;;;;;5026124;28;20032;-73
2024/01/28 00:41:36;;;;;;;30.75;20.15;;;;;;;;;;5026477;28;20078;-72
2024/01/28 00:44:01;;;;;;;57.97;44.58;;;;;;;;;;5036607;28;20048;-72
2024/01/28 00:46:26;;;;;;;55.10;43.22;;;;;;;;;;5050888;28;20021;-72
2024/01/28 00:48:52;;;;;;;44.72;35.30;;;;;;;;;;5022628;28;21561;-72
2024/01/28 00:51:17;;;;;;;32.33;23.55;;;;;;;;;;5034750;28;20395;-71
2024/01/28 00:53:43;;;;;;;29.55;20.77;;;;;;;;;;5036823;28;20020;-72
2024/01/28 00:56:08;;;;;;;28.67;19.95;;;;;;;;;;5028346;28;20348;-73
2024/01/28 00:58:34;;;;;;;26.83;18.23;;;;;;;;;;5036486;28;20056;-74
2024/01/28 01:00:59;;;;;;;27.13;18.23;;;;;;;;;;5028102;28;20029;-76
2024/01/28 01:03:25;;;;;;;22.58;14.95;;;;;;;;;;5026674;28;20116;-74
2024/01/28 01:05:50;;;;;;;22.58;15.60;;;;;;;;;;5039802;28;20348;-71
2024/01/28 01:08:16;;;;;;;15.35;11.00;;;;;;;;;;5040429;28;20743;-75
2024/01/28 01:10:42;;;;;;;19.10;12.05;;;;;;;;;;5037531;28;20496;-73
2024/01/28 01:13:07;;;;;;;19.77;13.68;;;;;;;;;;5037180;28;20021;-72
2024/01/28 01:15:32;;;;;;;18.63;11.65;;;;;;;;;;5036203;28;20035;-71
2024/01/28 01:17:58;;;;;;;16.02;11.05;;;;;;;;;;5035396;28;20028;-71
2024/01/28 01:20:23;;;;;;;16.30;12.20;;;;;;;;;;5031317;28;20055;-74
2024/01/28 01:22:49;;;;;;;17.05;12.27;;;;;;;;;;5027524;28;20453;-73
2024/01/28 01:25:14;;;;;;;19.70;13.20;;;;;;;;;;5030828;28;20126;-76
2024/01/28 01:27:52;;;;;;;19.70;13.82;;;;;;;;;;5036956;28;20063;-75
2024/01/28 01:30:17;;;;;;;18.92;13.88;;;;;;;;;;5038779;28;20653;-77
2024/01/28 01:32:43;;;;;;;18.00;12.32;;;;;;;;;;5039176;28;20043;-75
2024/01/28 01:35:08;;;;;;;16.75;11.23;;;;;;;;;;5054186;28;20047;-75
2024/01/28 01:37:34;;;;;;;19.70;13.80;;;;;;;;;;5037154;28;20037;-77
2024/01/28 01:40:00;;;;;;;19.73;14.13;;;;;;;;;;5037355;28;20021;-79
2024/01/28 01:42:25;;;;;;;18.60;12.80;;;;;;;;;;5023378;28;20029;-79
2024/01/28 01:44:51;;;;;;;17.38;11.27;;;;;;;;;;5028031;28;20035;-76
2024/01/28 01:47:17;;;;;;;25.40;17.80;;;;;;;;;;5024424;28;20116;-73
2024/01/28 01:49:43;;;;;;;21.73;16.80;;;;;;;;;;5034835;28;20060;-76
2024/01/28 01:52:08;;;;;;;23.10;16.35;;;;;;;;;;5024550;28;20110;-76
2024/01/28 01:54:34;;;;;;;19.38;12.00;;;;;;;;;;5035755;28;20021;-76
2024/01/28 01:56:59;;;;;;;16.55;10.50;;;;;;;;;;5037986;28;20040;-79
2024/01/28 01:59:25;;;;;;;14.25;10.45;;;;;;;;;;5038254;28;20415;-76
2024/01/28 02:01:54;;;;;;;18.98;12.70;;;;;;;;;;5036471;28;20044;-76
2024/01/28 02:04:20;;;;;;;14.98;11.35;;;;;;;;;;5027977;28;20395;-77
2024/01/28 02:06:46;;;;;;;18.88;14.63;;;;;;;;;;5034045;28;20029;-77
2024/01/28 02:09:11;;;;;;;40.15;30.38;;;;;;;;;;5027695;28;20022;-78
2024/01/28 02:11:36;;;;;;;47.00;36.00;;;;;;;;;;5032209;28;20429;-76
2024/01/28 02:14:02;;;;;;;36.25;28.08;;;;;;;;;;5029299;28;20032;-76
2024/01/28 02:16:27;;;;;;;36.08;26.33;;;;;;;;;;5022270;28;20067;-76
2024/01/28 02:18:52;;;;;;;36.60;26.25;;;;;;;;;;5030782;28;20039;-76
2024/01/28 02:21:18;;;;;;;46.03;32.47;;;;;;;;;;5028712;28;20753;-77
2024/01/28 02:23:43;;;;;;;52.45;39.10;;;;;;;;;;5051270;28;20090;-77
2024/01/28 02:26:09;;;;;;;48.45;35.80;;;;;;;;;;5037624;28;20025;-77
2024/01/28 02:28:34;;;;;;;50.05;36.15;;;;;;;;;;5034787;28;20366;-78
2024/01/28 02:30:59;;;;;;;52.42;39.13;;;;;;;;;;5035309;28;20044;-78
2024/01/28 02:33:25;;;;;;;45.25;34.55;;;;;;;;;;5030106;28;20083;-76
2024/01/28 02:35:50;;;;;;;41.05;32.70;;;;;;;;;;5035987;28;20169;-76
2024/01/28 02:38:15;;;;;;;41.53;33.80;;;;;;;;;;5026322;28;20107;-78
2024/01/28 02:40:41;;;;;;;43.92;35.40;;;;;;;;;;5034933;28;20037;-77
2024/01/28 02:43:07;;;;;;;46.92;35.15;;;;;;;;;;5036610;28;20071;-76
2024/01/28 02:45:32;;;;;;;44.17;32.50;;;;;;;;;;5037014;28;20016;-76
2024/01/28 02:47:58;;;;;;;45.22;35.15;;;;;;;;;;5037969;28;20031;-76
2024/01/28 02:50:23;;;;;;;71.13;55.40;;;;;;;;;;5037575;28;20032;-77
2024/01/28 02:52:48;;;;;;;40.05;30.45;;;;;;;;;;5034750;28;20058;-77
2024/01/28 02:55:14;;;;;;;42.55;35.58;;;;;;;;;;5036592;28;20120;-75
2024/01/28 02:57:39;;;;;;;42.03;34.53;;;;;;;;;;5035046;28;20047;-78
2024/01/28 03:00:06;;;;;;;40.30;32.60;;;;;;;;;;5035536;28;20104;-76
2024/01/28 03:02:31;;;;;;;40.75;36.38;;;;;;;;;;5036561;28;20131;-75
2024/01/28 03:04:57;;;;;;;38.83;34.70;;;;;;;;;;5027071;28;23578;-77
2024/01/28 03:07:22;;;;;;;44.53;37.60;;;;;;;;;;5034766;28;20025;-77
2024/01/28 03:09:47;;;;;;;56.90;46.97;;;;;;;;;;5036569;28;20021;-76
2024/01/28 03:12:13;;;;;;;52.30;41.08;;;;;;;;;;5036149;28;20402;-75
2024/01/28 03:14:38;;;;;;;62.97;52.88;;;;;;;;;;5037808;28;20029;-78
2024/01/28 03:17:03;;;;;;;81.05;64.25;;;;;;;;;;5040219;28;20092;-75
2024/01/28 03:19:29;;;;;;;45.13;36.75;;;;;;;;;;5041171;28;20446;-73
2024/01/28 03:21:54;;;;;;;72.45;56.95;;;;;;;;;;5040500;28;20146;-78
2024/01/28 03:24:20;;;;;;;58.70;46.03;;;;;;;;;;5037164;28;20024;-74
2024/01/28 03:26:45;;;;;;;53.28;46.67;;;;;;;;;;5028508;28;21528;-75
2024/01/28 03:29:10;;;;;;;28.95;25.67;;;;;;;;;;5037643;28;20108;-74
2024/01/28 03:31:36;;;;;;;25.88;21.45;;;;;;;;;;5039568;28;20102;-74
2024/01/28 03:34:01;;;;;;;26.42;22.35;;;;;;;;;;5039879;28;20059;-76
2024/01/28 03:36:26;;;;;;;46.80;37.55;;;;;;;;;;5040655;28;20025;-74
2024/01/28 03:38:53;;;;;;;41.10;33.13;;;;;;;;;;5040140;28;20021;-74
2024/01/28 03:41:18;;;;;;;36.55;31.08;;;;;;;;;;5038448;28;20044;-74
2024/01/28 03:43:46;;;;;;;36.90;28.70;;;;;;;;;;5054237;28;20474;-76
2024/01/28 03:46:12;;;;;;;35.63;30.77;;;;;;;;;;5040624;28;20036;-78
2024/01/28 03:48:37;;;;;;;39.20;32.38;;;;;;;;;;5040904;28;20025;-75
2024/01/28 03:51:02;;;;;;;37.47;32.55;;;;;;;;;;5034435;28;20051;-75
2024/01/28 03:53:28;;;;;;;39.63;31.58;;;;;;;;;;5034624;28;20061;-75
2024/01/28 03:55:53;;;;;;;39.58;34.17;;;;;;;;;;5035863;28;20436;-74
2024/01/28 03:58:18;;;;;;;42.80;35.38;;;;;;;;;;5030161;28;20052;-73
2024/01/28 04:00:44;;;;;;;28.35;22.75;;;;;;;;;;5034166;28;20337;-75
2024/01/28 04:03:09;;;;;;;29.88;20.92;;;;;;;;;;5039362;28;20119;-75
2024/01/28 04:05:35;;;;;;;20.23;15.95;;;;;;;;;;5037881;28;20428;-75
2024/01/28 04:08:01;;;;;;;19.48;15.38;;;;;;;;;;5039209;28;20087;-74
2024/01/28 04:10:26;;;;;;;39.03;29.65;;;;;;;;;;5041018;28;20025;-76
2024/01/28 04:12:51;;;;;;;39.45;31.75;;;;;;;;;;5039106;28;20033;-77
2024/01/28 04:15:17;;;;;;;20.52;16.75;;;;;;;;;;5038192;28;20021;-80
2024/01/28 04:17:42;;;;;;;20.38;16.60;;;;;;;;;;5035443;28;20036;-78
2024/01/28 04:20:08;;;;;;;18.00;15.20;;;;;;;;;;5031746;28;20035;-75
2024/01/28 04:22:34;;;;;;;20.73;17.02;;;;;;;;;;5037867;28;20440;-75
2024/01/28 04:24:59;;;;;;;16.20;14.45;;;;;;;;;;5038459;28;20068;-75
2024/01/28 04:27:25;;;;;;;17.08;15.32;;;;;;;;;;5040499;28;20392;-75
2024/01/28 04:29:50;;;;;;;18.35;15.82;;;;;;;;;;5041692;28;20028;-76
2024/01/28 04:32:15;;;;;;;21.42;19.02;;;;;;;;;;5040470;28;20849;-76
2024/01/28 04:34:41;;;;;;;16.65;14.93;;;;;;;;;;5038677;28;20076;-75
2024/01/28 04:37:06;;;;;;;14.25;12.52;;;;;;;;;;5037196;28;20120;-76
2024/01/28 04:39:34;;;;;;;13.73;10.70;;;;;;;;;;5038275;28;20110;-75
2024/01/28 04:42:00;;;;;;;13.90;11.18;;;;;;;;;;5028127;28;20145;-75
2024/01/28 04:44:25;;;;;;;16.48;14.45;;;;;;;;;;5035371;28;20393;-77
2024/01/28 04:46:51;;;;;;;25.15;19.33;;;;;;;;;;5037325;28;20028;-77
2024/01/28 04:49:16;;;;;;;29.30;22.77;;;;;;;;;;5033460;28;20052;-76
2024/01/28 04:51:42;;;;;;;16.35;13.25;;;;;;;;;;5032139;28;20053;-78
2024/01/28 04:54:08;;;;;;;15.60;14.00;;;;;;;;;;5038005;28;20023;-76
2024/01/28 04:56:33;;;;;;;11.18;9.98;;;;;;;;;;5037896;28;20464;-76
2024/01/28 04:58:58;;;;;;;12.57;9.57;;;;;;;;;;5036397;28;20032;-75
2024/01/28 05:01:24;;;;;;;12.30;9.00;;;;;;;;;;5036975;28;20028;-76
2024/01/28 05:03:49;;;;;;;12.07;10.88;;;;;;;;;;5036357;28;20032;-76
2024/01/28 05:06:14;;;;;;;15.65;13.60;;;;;;;;;;5036525;28;20045;-76
2024/01/28 05:08:40;;;;;;;19.92;16.55;;;;;;;;;;5027023;28;20032;-77
2024/01/28 05:11:06;;;;;;;33.67;27.13;;;;;;;;;;5026094;28;20258;-77
2024/01/28 05:13:32;;;;;;;44.17;30.63;;;;;;;;;;5027870;28;20021;-76
2024/01/28 05:15:57;;;;;;;21.75;15.77;;;;;;;;;;5037148;28;20035;-77
2024/01/28 05:18:22;;;;;;;25.98;19.55;;;;;;;;;;5037813;28;20620;-74
2024/01/28 05:20:48;;;;;;;40.38;29.10;;;;;;;;;;5036044;28;20025;-73
2024/01/28 05:23:13;;;;;;;19.92;14.85;;;;;;;;;;5038974;28;20083;-76
2024/01/28 05:25:38;;;;;;;22.40;18.67;;;;;;;;;;5037532;28;20108;-73
2024/01/28 05:28:06;;;;;;;16.23;13.60;;;;;;;;;;5035797;28;20087;-75
2024/01/28 05:30:32;;;;;;;20.48;17.98;;;;;;;;;;5036680;28;20060;-75
2024/01/28 05:32:57;;;;;;;22.73;20.10;;;;;;;;;;5037938;28;20076;-76
2024/01/28 05:35:22;;;;;;;23.20;19.02;;;;;;;;;;5035749;28;20029;-74
2024/01/28 05:37:48;;;;;;;19.73;16.20;;;;;;;;;;5030918;28;20021;-75
2024/01/28 05:40:13;;;;;;;31.35;23.88;;;;;;;;;;5032279;28;20708;-75
2024/01/28 05:42:39;;;;;;;24.90;19.30;;;;;;;;;;5037048;28;20459;-77
2024/01/28 05:45:05;;;;;;;19.20;15.18;;;;;;;;;;5036355;28;20049;-76
2024/01/28 05:47:30;;;;;;;19.23;14.50;;;;;;;;;;5037146;28;20024;-75
2024/01/28 05:49:56;;;;;;;16.00;11.98;;;;;;;;;;5035622;28;20055;-76
2024/01/28 05:52:21;;;;;;;18.58;14.15;;;;;;;;;;5037297;28;20100;-75
2024/01/28 05:54:47;;;;;;;18.90;16.25;;;;;;;;;;5037373;28;20329;-78
2024/01/28 05:57:12;;;;;;;20.58;18.38;;;;;;;;;;5036034;28;20030;-78
2024/01/28 05:59:38;;;;;;;42.38;34.17;;;;;;;;;;5035949;28;20036;-76
2024/01/28 06:02:03;;;;;;;42.85;34.63;;;;;;;;;;5030482;28;20432;-78
2024/01/28 06:04:29;;;;;;;40.83;32.67;;;;;;;;;;5032672;28;20068;-78
2024/01/28 06:06:54;;;;;;;38.30;30.77;;;;;;;;;;5035289;28;20139;-76
2024/01/28 06:09:20;;;;;;;38.80;31.13;;;;;;;;;;5036384;28;20360;-75
2024/01/28 06:11:46;;;;;;;38.47;30.67;;;;;;;;;;5036035;28;20036;-77
2024/01/28 06:14:11;;;;;;;40.22;29.15;;;;;;;;;;5030377;28;20116;-76
2024/01/28 06:16:37;;;;;;;144.55;85.60;;;;;;;;;;5014892;28;20021;-77
2024/01/28 06:19:02;;;;;;;192.65;109.75;;;;;;;;;;5008930;28;20068;-77
2024/01/28 06:21:28;;;;;;;137.02;110.90;;;;;;;;;;5006894;28;20029;-76
2024/01/28 06:23:53;;;;;;;134.23;109.85;;;;;;;;;;5008028;28;20109;-77
2024/01/28 06:26:19;;;;;;;143.70;125.97;;;;;;;;;;5009447;28;20036;-77
2024/01/28 06:28:45;;;;;;;159.45;141.93;;;;;;;;;;5020450;28;20080;-78
2024/01/28 06:31:11;;;;;;;131.57;107.95;;;;;;;;;;5022027;28;20033;-75
2024/01/28 06:33:37;;;;;;;115.40;93.93;;;;;;;;;;5020842;28;20817;-75
2024/01/28 06:36:02;;;;;;;135.15;103.72;;;;;;;;;;5023320;28;20020;-77
2024/01/28 06:38:28;;;;;;;87.93;69.88;;;;;;;;;;5020406;28;20052;-77
2024/01/28 06:40:55;;;;;;;155.80;118.57;;;;;;;;;;5022325;28;20036;-76
2024/01/28 06:43:20;;;;;;;141.23;109.30;;;;;;;;;;5023558;28;20032;-73
2024/01/28 06:45:46;;;;;;;129.27;102.45;;;;;;;;;;5023212;28;20029;-73
2024/01/28 06:48:11;;;;;;;125.90;99.40;;;;;;;;;;5026353;28;20020;-75
2024/01/28 06:50:37;;;;;;;81.18;64.13;;;;;;;;;;5024882;28;20064;-74
2024/01/28 06:53:05;;;;;;;83.78;73.28;;;;;;;;;;5028824;28;20448;-75
2024/01/28 06:55:30;;;;;;;77.72;64.00;;;;;;;;;;5025677;28;20026;-75
2024/01/28 06:57:55;;;;;;;75.75;62.47;;;;;;;;;;5024826;28;20032;-74
2024/01/28 07:00:21;;;;;;;47.80;40.97;;;;;;;;;;5027659;28;20463;-75
2024/01/28 07:02:47;;;;;;;44.25;39.67;;;;;;;;;;5024614;28;20067;-75
2024/01/28 07:05:12;;;;;;;62.95;53.88;;;;;;;;;;5026986;28;20321;-76
2024/01/28 07:07:39;;;;;;;69.35;59.60;;;;;;;;;;5024914;28;20048;-75
2024/01/28 07:10:05;;;;;;;133.73;116.05;;;;;;;;;;5027096;28;20095;-76
2024/01/28 07:12:30;;;;;;;244.90;194.20;;;;;;;;;;5024029;28;20608;-75
2024/01/28 07:14:56;;;;;;;90.22;72.05;;;;;;;;;;5026410;28;20017;-74
2024/01/28 07:17:21;;;;;;;122.55;103.97;;;;;;;;;;5024609;28;20332;-76
2024/01/28 07:19:46;;;;;;;73.13;62.45;;;;;;;;;;5026293;28;20468;-77
2024/01/28 07:22:12;;;;;;;59.75;50.22;;;;;;;;;;5023262;28;20039;-77
2024/01/28 07:24:38;;;;;;;56.45;47.55;;;;;;;;;;5026483;28;20025;-79
2024/01/28 07:27:04;;;;;;;92.85;80.80;;;;;;;;;;5041895;28;20119;-76
2024/01/28 07:29:29;;;;;;;89.50;78.68;;;;;;;;;;5026935;28;20100;-76
2024/01/28 07:31:55;;;;;;;93.80;84.10;;;;;;;;;;5024939;28;20063;-76
2024/01/28 07:34:23;;;;;;;54.58;45.28;;;;;;;;;;5025366;28;20400;-78
2024/01/28 07:36:49;;;;;;;92.00;80.65;;;;;;;;;;5023209;28;20041;-77
2024/01/28 07:39:15;;;;;;;59.40;48.42;;;;;;;;;;5026377;28;20452;-76
2024/01/28 07:41:41;;;;;;;76.75;60.83;;;;;;;;;;5021871;28;20029;-76
2024/01/28 07:44:06;;;;;;;85.53;75.35;;;;;;;;;;5027329;28;20029;-76
2024/01/28 07:46:32;;;;;;;98.18;82.60;;;;;;;;;;5042704;28;20453;-76
2024/01/28 07:48:57;;;;;;;67.20;53.38;;;;;;;;;;5040409;28;20035;-76
2024/01/28 07:51:22;;;;;;;50.58;40.65;;;;;;;;;;5027804;28;20499;-78
2024/01/28 07:53:48;;;;;;;44.75;39.95;;;;;;;;;;5025933;28;20036;-78
2024/01/28 07:56:15;;;;;;;36.95;33.03;;;;;;;;;;5026522;28;20029;-79
2024/01/28 07:58:40;;;;;;;33.60;29.90;;;;;;;;;;5024354;28;20463;-79
2024/01/28 08:01:06;;;;;;;35.72;28.80;;;;;;;;;;5024366;28;20037;-78
2024/01/28 08:03:32;;;;;;;29.38;25.35;;;;;;;;;;5025014;28;20037;-79
2024/01/28 08:05:57;;;;;;;30.38;25.38;;;;;;;;;;5024850;28;20334;-78
2024/01/28 08:08:23;;;;;;;30.50;27.42;;;;;;;;;;5025069;28;20038;-77
2024/01/28 08:10:49;;;;;;;23.83;20.73;;;;;;;;;;5031647;28;20442;-79
2024/01/28 08:13:14;;;;;;;36.80;31.70;;;;;;;;;;5036348;28;20104;-78
2024/01/28 08:15:40;;;;;;;34.83;30.38;;;;;;;;;;5040079;28;20407;-78
2024/01/28 08:18:05;;;;;;;16.15;13.55;;;;;;;;;;5031871;28;20033;-78
2024/01/28 08:20:31;;;;;;;41.17;36.67;;;;;;;;;;5033389;28;20028;-78
2024/01/28 08:22:57;;;;;;;40.53;35.08;;;;;;;;;;5039311;28;20496;-79
2024/01/28 08:25:23;;;;;;;22.25;19.85;;;;;;;;;;5037243;28;20056;-78
2024/01/28 08:27:48;;;;;;;55.03;39.67;;;;;;;;;;5030665;28;20032;-76
2024/01/28 08:30:15;;;;;;;40.33;29.85;;;;;;;;;;5035592;28;20050;-78
2024/01/28 08:32:40;;;;;;;54.13;43.22;;;;;;;;;;5026686;28;20108;-78
2024/01/28 08:35:07;;;;;;;50.17;39.60;;;;;;;;;;5036919;28;20493;-78
2024/01/28 08:37:32;;;;;;;52.97;40.88;;;;;;;;;;5032388;28;20102;-79
2024/01/28 08:39:58;;;;;;;37.42;32.50;;;;;;;;;;5031164;28;20029;-77
2024/01/28 08:42:24;;;;;;;32.80;28.88;;;;;;;;;;5031871;28;20040;-80
2024/01/28 08:44:49;;;;;;;23.70;21.17;;;;;;;;;;5028352;28;20377;-77
2024/01/28 08:47:15;;;;;;;28.48;25.38;;;;;;;;;;5035048;28;20028;-78
2024/01/28 08:49:40;;;;;;;41.15;35.72;;;;;;;;;;5040634;28;20381;-78
2024/01/28 08:52:06;;;;;;;45.08;38.97;;;;;;;;;;5038553;28;20110;-75
2024/01/28 08:54:56;;;;;;;48.55;41.55;;;;;;;;;;5038070;28;20489;-77
2024/01/28 08:57:21;;;;;;;52.38;44.40;;;;;;;;;;5036237;28;20033;-79
2024/01/28 08:59:47;;;;;;;67.15;54.80;;;;;;;;;;5038880;28;20415;-77
2024/01/28 09:02:12;;;;;;;52.75;42.00;;;;;;;;;;5038551;28;20022;-78
2024/01/28 09:04:37;;;;;;;60.15;42.05;;;;;;;;;;5036441;28;20029;-79
2024/01/28 09:07:03;;;;;;;55.75;44.40;;;;;;;;;;5043474;28;20028;-80
2024/01/28 09:09:28;;;;;;;56.47;44.08;;;;;;;;;;5030874;28;20040;-78
2024/01/28 09:11:54;;;;;;;31.42;25.33;;;;;;;;;;5039009;28;20067;-78
2024/01/28 09:14:19;;;;;;;39.65;32.97;;;;;;;;;;5037080;28;20090;-75
2024/01/28 09:16:45;;;;;;;34.42;27.95;;;;;;;;;;5012611;28;20040;-76
2024/01/28 09:19:10;;;;;;;33.63;27.73;;;;;;;;;;5021364;28;20132;-76
2024/01/28 09:21:35;;;;;;;32.58;29.02;;;;;;;;;;5019917;28;20032;-79
2024/01/28 09:24:02;;;;;;;26.83;21.90;;;;;;;;;;5016094;28;20406;-77
2024/01/28 09:26:28;;;;;;;31.70;25.08;;;;;;;;;;5026415;28;20013;-74
2024/01/28 09:28:53;;;;;;;25.30;19.35;;;;;;;;;;5021965;28;20052;-77
2024/01/28 09:31:18;;;;;;;37.65;30.67;;;;;;;;;;5029283;28;20087;-76
2024/01/28 09:33:44;;;;;;;20.20;17.80;;;;;;;;;;5024122;28;20047;-72
2024/01/28 09:36:09;;;;;;;22.05;17.33;;;;;;;;;;5022400;28;20128;-74
2024/01/28 09:38:34;;;;;;;34.75;25.23;;;;;;;;;;5028520;28;20036;-72
2024/01/28 09:41:19;;;;;;;24.20;20.13;;;;;;;;;;5030475;28;20029;-73
2024/01/28 09:43:44;;;;;;;28.88;21.77;;;;;;;;;;5032706;28;20115;-72
2024/01/28 09:46:09;;;;;;;41.38;35.80;;;;;;;;;;5035031;28;20139;-71
2024/01/28 09:48:35;;;;;;;34.50;26.38;;;;;;;;;;5036283;28;20080;-72
2024/01/28 09:51:00;;;;;;;26.88;22.20;;;;;;;;;;5026805;28;20453;-73
2024/01/28 09:53:25;;;;;;;24.42;20.40;;;;;;;;;;5027561;28;20470;-74
2024/01/28 09:55:51;;;;;;;33.60;26.65;;;;;;;;;;5020997;28;20024;-73
2024/01/28 09:58:22;;;;;;;47.85;34.00;;;;;;;;;;5026774;28;20080;-73
2024/01/28 10:03:23;;;;;;;31.08;23.95;;;;;;;;;;5289724;22;20061;-71
2024/01/28 10:05:48;;;;;;;54.80;41.80;;;;;;;;;;5019732;28;20091;-73
2024/01/28 10:11:16;;;;;;;28.38;22.55;;;;;;;;;;5019274;28;20067;-71
2024/01/28 10:13:41;;;;;;;52.53;42.45;;;;;;;;;;5020734;28;20021;-71
2024/01/28 10:16:07;;;;;;;33.55;29.35;;;;;;;;;;5018805;28;20025;-70
2024/01/28 10:18:32;;;;;;;53.60;41.03;;;;;;;;;;5020820;28;20025;-72
2024/01/28 10:20:57;;;;;;;65.05;50.00;;;;;;;;;;5020614;28;20045;-73
2024/01/28 10:23:23;;;;;;;64.25;52.15;;;;;;;;;;5024443;28;20451;-74
2024/01/28 10:25:48;;;;;;;44.00;36.17;;;;;;;;;;5023491;28;20347;-75
2024/01/28 10:28:15;;;;;;;68.72;55.25;;;;;;;;;;5022763;28;20467;-76
2024/01/28 10:30:42;;;;;;;41.55;34.10;;;;;;;;;;5022638;28;20079;-74
2024/01/28 10:33:07;;;;;;;71.38;58.70;;;;;;;;;;5021607;28;20076;-73
2024/01/28 10:35:32;;;;;;;52.38;42.65;;;;;;;;;;5021597;28;20045;-74
2024/01/28 10:37:59;;;;;;;45.25;39.78;;;;;;;;;;5021078;28;20044;-73
2024/01/28 10:40:34;;;;;;;45.20;39.00;;;;;;;;;;5020748;28;20040;-74
2024/01/28 10:43:00;;;;;;;29.25;26.08;;;;;;;;;;5020950;28;20024;-75
2024/01/28 10:45:27;;;;;;;27.88;23.65;;;;;;;;;;5020694;28;20215;-74
2024/01/28 10:47:55;;;;;;;44.35;38.95;;;;;;;;;;5014378;28;20037;-74
2024/01/28 10:50:24;;;;;;;42.47;36.80;;;;;;;;;;5021331;28;20098;-73
2024/01/28 10:52:50;;;;;;;42.67;35.47;;;;;;;;;;4995169;28;20095;-74
2024/01/28 10:55:16;;;;;;;41.50;33.90;;;;;;;;;;5018192;28;20436;-73
2024/01/28 10:57:42;;;;;;;24.58;20.83;;;;;;;;;;5021250;28;20032;-73
2024/01/28 11:00:10;;;;;;;35.05;28.92;;;;;;;;;;5015318;28;20113;-74
2024/01/28 11:02:37;;;;;;;42.92;37.65;;;;;;;;;;5010926;28;20041;-75
2024/01/28 11:05:03;;;;;;;28.17;25.10;;;;;;;;;;5010344;28;20075;-73
2024/01/28 11:07:29;;;;;;;31.00;27.65;;;;;;;;;;5013656;28;20029;-72
2024/01/28 11:09:54;;;;;;;71.70;61.78;;;;;;;;;;5011030;28;20051;-72
2024/01/28 11:12:20;;;;;;;59.70;53.22;;;;;;;;;;5018605;28;20448;-72
2024/01/28 11:14:46;;;;;;;43.28;38.78;;;;;;;;;;5003750;28;20032;-70
2024/01/28 11:17:12;;;;;;;40.05;35.75;;;;;;;;;;5022915;28;20025;-71
2024/01/28 11:19:37;;;;;;;53.00;39.22;;;;;;;;;;5019769;28;20025;-72
2024/01/28 11:22:03;;;;;;;56.95;47.20;;;;;;;;;;5022696;28;20029;-72
2024/01/28 11:24:29;;;;;;;38.80;30.70;;;;;;;;;;5018477;28;20129;-72
2024/01/28 11:26:58;;;;;;;36.95;31.08;;;;;;;;;;5019871;28;20097;-72
2024/01/28 11:29:30;;;;;;;35.00;30.70;;;;;;;;;;5016065;28;20033;-71
2024/01/28 11:31:56;;;;;;;44.92;37.50;;;;;;;;;;5010017;28;20289;-73
2024/01/28 11:34:21;;;;;;;40.85;35.00;;;;;;;;;;5009842;28;20057;-71
2024/01/28 11:36:48;;;;;;;38.30;33.33;;;;;;;;;;5020756;28;20029;-75
2024/01/28 11:39:15;;;;;;;44.65;38.85;;;;;;;;;;5016649;28;20032;-73
2024/01/28 11:41:42;;;;;;;33.35;28.13;;;;;;;;;;5011369;28;20057;-74
2024/01/28 11:44:10;;;;;;;31.95;26.42;;;;;;;;;;5015295;28;20048;-75
2024/01/28 11:46:36;;;;;;;37.88;31.50;;;;;;;;;;5022261;28;20026;-73
2024/01/28 11:49:20;;;;;;;40.55;33.45;;;;;;;;;;5011511;28;20024;-72
2024/01/28 11:51:45;;;;;;;30.95;27.63;;;;;;;;;;5019130;28;20029;-71
2024/01/28 11:54:10;;;;;;;41.95;33.47;;;;;;;;;;5018373;28;20435;-75
2024/01/28 11:56:36;;;;;;;33.72;29.48;;;;;;;;;;5019952;28;20079;-76
2024/01/28 11:59:04;;;;;;;40.25;35.22;;;;;;;;;;5021555;28;20032;-76
2024/01/28 12:01:29;;;;;;;38.33;34.00;;;;;;;;;;5020838;28;20040;-71
2024/01/28 12:03:55;;;;;;;38.30;33.97;;;;;;;;;;4986796;28;20062;-71
2024/01/28 12:06:24;;;;;;;33.60;29.48;;;;;;;;;;4979841;28;20405;-73
2024/01/28 12:08:50;;;;;;;43.53;35.90;;;;;;;;;;4979984;28;20041;-71
2024/01/28 12:11:16;;;;;;;47.40;37.72;;;;;;;;;;4970625;28;20030;-69
2024/01/28 12:13:42;;;;;;;33.80;29.73;;;;;;;;;;4975490;28;20018;-71
2024/01/28 12:16:07;;;;;;;37.28;31.75;;;;;;;;;;4974311;28;20057;-74
2024/01/28 12:18:33;;;;;;;24.35;21.70;;;;;;;;;;4970910;28;20487;-72
2024/01/28 12:20:58;;;;;;;42.67;36.00;;;;;;;;;;4974449;28;20423;-70
2024/01/28 12:23:24;;;;;;;31.15;26.55;;;;;;;;;;4979209;28;20078;-73
2024/01/28 12:25:49;;;;;;;42.00;35.13;;;;;;;;;;4976043;28;20042;-70
2024/01/28 12:28:14;;;;;;;36.20;31.77;;;;;;;;;;4974233;28;20026;-70
2024/01/28 12:30:40;;;;;;;55.72;44.60;;;;;;;;;;4974159;28;20034;-72
2024/01/28 12:33:06;;;;;;;45.08;37.13;;;;;;;;;;4971377;28;20026;-71
2024/01/28 12:35:32;;;;;;;46.60;38.17;;;;;;;;;;4977033;28;20018;-71
2024/01/28 12:37:57;;;;;;;30.15;26.95;;;;;;;;;;4979357;28;20156;-73
2024/01/28 12:40:23;;;;;;;52.80;41.58;;;;;;;;;;4975630;28;20105;-75
2024/01/28 12:42:48;;;;;;;71.57;55.58;;;;;;;;;;4968571;28;20034;-72
2024/01/28 12:45:14;;;;;;;48.67;40.58;;;;;;;;;;4968131;28;20037;-74
2024/01/28 12:47:42;;;;;;;53.83;44.20;;;;;;;;;;4967941;28;20030;-72
2024/01/28 12:50:09;;;;;;;37.97;33.78;;;;;;;;;;4976328;28;20022;-73
2024/01/28 12:52:35;;;;;;;40.60;34.38;;;;;;;;;;4973144;28;20061;-75
2024/01/28 12:55:01;;;;;;;42.45;31.67;;;;;;;;;;4983168;28;20097;-76
2024/01/28 12:57:26;;;;;;;85.93;60.10;;;;;;;;;;4982843;28;20068;-74
2024/01/28 12:59:52;;;;;;;66.35;49.88;;;;;;;;;;4982547;28;20038;-77
2024/01/28 13:02:17;;;;;;;34.58;29.25;;;;;;;;;;4981906;28;20096;-75
2024/01/28 13:04:43;;;;;;;30.85;24.60;;;;;;;;;;5017634;28;20049;-73
2024/01/28 13:07:08;;;;;;;25.48;22.67;;;;;;;;;;5020858;28;20355;-73
2024/01/28 13:09:33;;;;;;;31.63;25.25;;;;;;;;;;5015126;28;20037;-73
2024/01/28 13:11:59;;;;;;;51.00;39.95;;;;;;;;;;5009247;28;20029;-72
2024/01/28 13:14:24;;;;;;;35.45;31.60;;;;;;;;;;5009386;28;20034;-74
2024/01/28 13:16:50;;;;;;;52.13;42.75;;;;;;;;;;5012206;28;20468;-74
2024/01/28 13:19:16;;;;;;;48.85;43.20;;;;;;;;;;5020604;28;20329;-73
2024/01/28 13:21:42;;;;;;;99.82;86.32;;;;;;;;;;5017754;28;20402;-74
2024/01/28 13:24:07;;;;;;;74.82;63.50;;;;;;;;;;4990541;28;21148;-72
2024/01/28 13:26:32;;;;;;;55.30;48.35;;;;;;;;;;5006427;28;20083;-70
2024/01/28 13:28:58;;;;;;;68.22;55.53;;;;;;;;;;5009844;28;20159;-71
2024/01/28 13:31:24;;;;;;;73.75;61.58;;;;;;;;;;5008945;28;20033;-71
2024/01/28 13:33:49;;;;;;;52.90;45.88;;;;;;;;;;4994831;28;20061;-72
2024/01/28 13:36:15;;;;;;;39.85;35.65;;;;;;;;;;5008129;28;20095;-72
2024/01/28 13:38:41;;;;;;;49.35;41.00;;;;;;;;;;5006721;28;20032;-72
2024/01/28 13:41:07;;;;;;;32.95;27.15;;;;;;;;;;5013469;28;20099;-73
2024/01/28 13:43:34;;;;;;;52.95;42.38;;;;;;;;;;4990237;28;20041;-74
2024/01/28 13:46:00;;;;;;;53.58;41.47;;;;;;;;;;5005996;28;20025;-72
2024/01/28 13:48:25;;;;;;;58.03;49.15;;;;;;;;;;4991036;28;20036;-73
2024/01/28 13:50:51;;;;;;;65.00;48.72;;;;;;;;;;5006766;28;20428;-75
2024/01/28 13:53:16;;;;;;;87.47;68.25;;;;;;;;;;5007150;28;20033;-74
2024/01/28 13:55:41;;;;;;;61.30;49.38;;;;;;;;;;5005577;28;20029;-74
2024/01/28 13:58:07;;;;;;;68.15;52.25;;;;;;;;;;5007754;28;20025;-72
2024/01/28 14:00:32;;;;;;;80.60;62.22;;;;;;;;;;5005439;28;20337;-71
2024/01/28 14:02:58;;;;;;;63.90;49.78;;;;;;;;;;5008212;28;20383;-72
2024/01/28 14:05:23;;;;;;;40.15;35.05;;;;;;;;;;5006360;28;20032;-71
2024/01/28 14:07:48;;;;;;;51.20;43.08;;;;;;;;;;5004867;28;20053;-73
2024/01/28 14:10:14;;;;;;;52.95;43.80;;;;;;;;;;5006551;28;20041;-70
2024/01/28 14:12:39;;;;;;;49.90;43.05;;;;;;;;;;5006614;28;20573;-71